Terminal Aerodrome Forecast
Issued by NWS

Home | Current Version | Previous Version | Text Only | Print | Product List | Glossary On
Versions: 1 2 3 4 5 6 7 8 9 10 11 12 13 14 15 16 17 18 19 20 21
611
FTUS46 KEKA 211721
TAFUKI
TAF
KUKI 211721Z 2118/2218 16006KT P6SM -SHRA FEW025 OVC035
     FM220300 16012G22KT 4SM RA BR OVC025 WS020/15035KT
     FM221200 15008KT 6SM -SHRA BR OVC025=

USA.gov is the U.S. government's official web portal to all federal, state and local government web resources and services.